Time;durP1;ratioP1;P1;durP2;ratioP2;P2;SDS_P1;SDS_P2;PMS_P1;PMS_P2;Temp;Humidity;BMP_temperature;BMP_pressure;BME280_temperature;BME280_humidity;BME280_pressure;Samples;Min_cycle;Max_cycle;Signal;HPM_P1;HPM_P2
2023/08/24 00:00:11;;;;;;;4.00;2.30;;;16.00;99.90;;;;;;4823764;29;20058;-82
2023/08/24 00:02:37;;;;;;;3.97;2.47;;;16.00;99.90;;;;;;4828906;29;20062;-82
2023/08/24 00:05:05;;;;;;;5.70;2.50;;;16.00;99.90;;;;;;4830182;29;20133;-82
2023/08/24 00:07:32;;;;;;;4.70;2.33;;;16.00;99.90;;;;;;4814421;29;20054;-82
2023/08/24 00:09:58;;;;;;;4.07;2.58;;;15.90;99.90;;;;;;4806291;29;20046;-82
2023/08/24 00:12:24;;;;;;;4.78;2.70;;;15.90;99.90;;;;;;4811676;29;20110;-82
2023/08/24 00:14:50;;;;;;;5.03;3.28;;;15.90;99.90;;;;;;4824503;29;20042;-82
2023/08/24 00:17:16;;;;;;;5.63;3.28;;;15.90;99.90;;;;;;4825669;29;20167;-82
2023/08/24 00:19:42;;;;;;;4.88;3.03;;;15.80;99.90;;;;;;4805391;29;20049;-82
2023/08/24 00:22:07;;;;;;;4.57;2.42;;;15.80;99.90;;;;;;4824436;29;20062;-82
2023/08/24 00:24:33;;;;;;;5.00;2.55;;;15.80;99.90;;;;;;4821300;29;20046;-82
2023/08/24 00:26:59;;;;;;;4.63;2.90;;;15.70;99.90;;;;;;4807541;29;20068;-82
2023/08/24 00:29:25;;;;;;;3.88;2.53;;;15.70;99.90;;;;;;4811988;29;20494;-82
2023/08/24 00:31:50;;;;;;;2.22;1.45;;;15.60;99.90;;;;;;4833266;29;20053;-83
2023/08/24 00:34:16;;;;;;;1.55;1.02;;;15.50;99.90;;;;;;4827976;29;20041;-83
2023/08/24 00:36:42;;;;;;;1.58;1.27;;;15.50;99.90;;;;;;4831082;29;20061;-82
2023/08/24 00:39:08;;;;;;;2.83;1.77;;;15.40;99.90;;;;;;4822458;29;20125;-83
2023/08/24 00:41:34;;;;;;;1.67;1.48;;;15.40;99.90;;;;;;4812620;29;20204;-83
2023/08/24 00:43:59;;;;;;;3.28;1.70;;;15.40;99.90;;;;;;4828582;29;20141;-83
2023/08/24 00:46:27;;;;;;;2.53;2.00;;;15.40;99.90;;;;;;4813877;29;20053;-83
2023/08/24 00:48:57;;;;;;;2.03;1.80;;;15.40;99.90;;;;;;4829354;29;20046;-82
2023/08/24 00:51:24;;;;;;;3.50;2.50;;;15.40;99.90;;;;;;4828747;29;20054;-83
2023/08/24 00:53:50;;;;;;;3.17;1.92;;;15.40;99.90;;;;;;4826895;29;20046;-84
2023/08/24 00:56:15;;;;;;;2.97;2.00;;;15.50;99.90;;;;;;4822546;29;20042;-83
2023/08/24 00:58:42;;;;;;;3.95;2.50;;;15.50;99.90;;;;;;4826604;29;20042;-83
2023/08/24 01:01:08;;;;;;;4.32;2.50;;;15.40;99.90;;;;;;4824396;29;20117;-83
2023/08/24 01:03:34;;;;;;;4.82;3.33;;;15.50;99.90;;;;;;4827691;29;20055;-84
2023/08/24 01:06:00;;;;;;;4.43;2.90;;;15.50;99.90;;;;;;4827980;29;20061;-83
2023/08/24 01:08:26;;;;;;;4.60;3.17;;;15.50;99.90;;;;;;4809329;29;20467;-82
2023/08/24 01:11:22;;;;;;;6.63;3.50;;;15.50;99.90;;;;;;4824501;29;20509;-82
2023/08/24 01:13:57;;;;;;;5.35;3.80;;;15.50;99.90;;;;;;4825960;29;20277;-83
2023/08/24 01:16:28;;;;;;;5.63;3.10;;;15.40;99.90;;;;;;4832821;29;20061;-83
2023/08/24 01:18:59;;;;;;;5.57;3.40;;;15.30;99.90;;;;;;4810375;29;20371;-83
2023/08/24 01:21:29;;;;;;;5.53;3.33;;;15.30;99.90;;;;;;4811806;29;20084;-83
2023/08/24 01:24:14;;;;;;;6.53;3.80;;;15.30;99.90;;;;;;4804296;29;20074;-83
2023/08/24 01:26:43;;;;;;;4.97;3.50;;;15.40;99.90;;;;;;4808537;29;20354;-82
2023/08/24 01:29:13;;;;;;;5.70;3.97;;;15.40;99.90;;;;;;4829047;29;20122;-83
2023/08/24 01:31:38;;;;;;;4.47;3.77;;;15.40;99.90;;;;;;4820124;29;20050;-83
2023/08/24 01:34:04;;;;;;;6.57;4.90;;;15.40;99.90;;;;;;4823596;29;20368;-84
2023/08/24 01:36:33;;;;;;;8.57;5.15;;;15.50;99.90;;;;;;4826278;29;20092;-83
2023/08/24 01:39:19;;;;;;;6.40;5.20;;;15.50;99.90;;;;;;4809543;29;20057;-83
2023/08/24 01:41:48;;;;;;;6.90;5.35;;;15.50;99.90;;;;;;4811012;29;20092;-83
2023/08/24 01:44:21;;;;;;;7.25;5.70;;;15.40;99.90;;;;;;4827153;29;20057;-84
2023/08/24 01:46:49;;;;;;;8.98;5.60;;;15.40;99.90;;;;;;4824151;29;20088;-83
2023/08/24 01:49:18;;;;;;;7.07;5.10;;;15.40;99.90;;;;;;4823224;29;20049;-83
2023/08/24 01:51:45;;;;;;;8.23;5.97;;;15.50;99.90;;;;;;4822449;29;20322;-83
2023/08/24 01:54:12;;;;;;;11.18;6.40;;;15.50;99.90;;;;;;4821226;29;20050;-83
2023/08/24 01:56:38;;;;;;;9.98;6.18;;;15.60;99.90;;;;;;4828706;29;20048;-83
2023/08/24 01:59:04;;;;;;;9.43;6.22;;;15.60;99.90;;;;;;4809071;29;20049;-83
2023/08/24 02:01:30;;;;;;;9.25;7.18;;;15.60;99.90;;;;;;4830323;29;20078;-83
2023/08/24 02:03:56;;;;;;;8.68;7.28;;;15.70;99.90;;;;;;4824912;29;20403;-83
2023/08/24 02:06:26;;;;;;;12.45;7.78;;;15.70;99.90;;;;;;4816249;29;20054;-83
2023/08/24 02:08:51;;;;;;;10.27;8.20;;;15.70;99.90;;;;;;4832112;29;20489;-83
2023/08/24 02:11:17;;;;;;;8.38;6.18;;;15.70;99.90;;;;;;4836550;29;20057;-83
2023/08/24 02:13:43;;;;;;;10.18;6.80;;;15.70;99.90;;;;;;4837333;29;20054;-83
2023/08/24 02:16:09;;;;;;;11.73;6.50;;;15.70;99.90;;;;;;4835062;29;20142;-83
2023/08/24 02:18:35;;;;;;;8.13;6.55;;;15.70;99.90;;;;;;4834181;29;20069;-83
2023/08/24 02:21:11;;;;;;;8.27;7.03;;;15.80;99.90;;;;;;4814315;29;20213;-83
2023/08/24 02:23:37;;;;;;;12.63;8.63;;;15.80;99.90;;;;;;4842656;29;20140;-83
2023/08/24 02:26:03;;;;;;;12.57;9.10;;;15.80;99.90;;;;;;4835417;29;20136;-83
2023/08/24 02:28:29;;;;;;;14.45;9.57;;;15.80;99.90;;;;;;4834306;29;20156;-84
2023/08/24 02:31:00;;;;;;;8.10;6.40;;;15.80;99.90;;;;;;4833421;29;20540;-83
2023/08/24 02:33:26;;;;;;;8.13;5.55;;;15.70;99.90;;;;;;4820061;29;20057;-84
2023/08/24 02:35:52;;;;;;;9.60;5.68;;;15.70;99.90;;;;;;4819947;29;20046;-83
2023/08/24 02:38:17;;;;;;;10.43;6.60;;;15.70;99.90;;;;;;4833179;29;20061;-83
2023/08/24 02:40:43;;;;;;;9.52;6.28;;;15.70;99.90;;;;;;4839258;29;20472;-83
2023/08/24 02:43:09;;;;;;;11.18;7.05;;;15.80;99.90;;;;;;4835317;29;20074;-84
2023/08/24 02:45:35;;;;;;;8.95;6.72;;;15.80;99.90;;;;;;4832186;29;20058;-83
2023/08/24 02:48:01;;;;;;;9.18;7.18;;;15.80;99.90;;;;;;4823165;29;20120;-83
2023/08/24 02:50:27;;;;;;;9.13;6.28;;;15.80;99.90;;;;;;4828673;29;20046;-83
2023/08/24 02:52:53;;;;;;;7.20;5.32;;;15.80;99.90;;;;;;4829537;29;20099;-83
2023/08/24 02:55:19;;;;;;;9.38;5.78;;;15.80;99.90;;;;;;4835048;29;20048;-84
2023/08/24 02:57:45;;;;;;;9.20;7.68;;;15.80;99.90;;;;;;4816795;29;20086;-83
2023/08/24 03:00:14;;;;;;;7.50;5.47;;;15.80;99.90;;;;;;4834858;29;20501;-83
2023/08/24 03:02:39;;;;;;;6.40;4.78;;;15.80;99.90;;;;;;4834997;29;20509;-83
2023/08/24 03:05:06;;;;;;;7.07;4.88;;;15.80;99.90;;;;;;4820081;29;20110;-83
2023/08/24 03:07:32;;;;;;;7.70;5.30;;;15.80;99.90;;;;;;4834107;29;20069;-83
2023/08/24 03:09:58;;;;;;;9.80;5.30;;;15.80;99.90;;;;;;4834484;29;20049;-83
2023/08/24 03:12:24;;;;;;;9.88;5.53;;;15.90;99.90;;;;;;4829603;29;20046;-83
2023/08/24 03:14:54;;;;;;;8.68;5.43;;;15.90;99.90;;;;;;4831458;29;20797;-83
2023/08/24 03:17:20;;;;;;;6.75;5.25;;;15.90;99.90;;;;;;4829265;29;20375;-83
2023/08/24 03:19:46;;;;;;;10.68;5.43;;;15.90;99.90;;;;;;4819047;29;20426;-83
2023/08/24 03:22:12;;;;;;;8.40;4.78;;;15.80;99.90;;;;;;4834759;29;20123;-83
2023/08/24 03:24:40;;;;;;;7.00;4.90;;;15.80;99.90;;;;;;4834409;29;20053;-84
2023/08/24 03:27:06;;;;;;;9.23;5.55;;;15.80;99.90;;;;;;4819604;29;20534;-83
2023/08/24 03:29:32;;;;;;;7.72;5.00;;;15.80;99.90;;;;;;4834337;29;20050;-83
2023/08/24 03:32:01;;;;;;;11.68;6.55;;;15.70;99.90;;;;;;4832992;29;20453;-84
2023/08/24 03:34:27;;;;;;;13.38;7.75;;;15.70;99.90;;;;;;4834742;29;20057;-83
2023/08/24 03:36:52;;;;;;;9.43;5.75;;;15.70;99.90;;;;;;4839292;29;20053;-83
2023/08/24 03:39:18;;;;;;;10.15;5.57;;;15.70;99.90;;;;;;4834436;29;20060;-83
2023/08/24 03:41:44;;;;;;;9.45;5.80;;;15.60;99.90;;;;;;4830417;29;20053;-83
2023/08/24 03:44:10;;;;;;;6.72;4.47;;;15.60;99.90;;;;;;4835098;29;20269;-83
2023/08/24 03:46:36;;;;;;;7.03;5.15;;;15.60;99.90;;;;;;4816994;29;21130;-84
2023/08/24 03:49:02;;;;;;;9.23;5.30;;;15.50;99.90;;;;;;4834519;29;20501;-83
2023/08/24 03:51:28;;;;;;;6.97;5.47;;;15.50;99.90;;;;;;4817896;29;20094;-83
2023/08/24 03:53:54;;;;;;;11.00;6.80;;;15.50;99.90;;;;;;4817424;29;20042;-83
2023/08/24 03:56:20;;;;;;;8.75;6.50;;;15.50;99.90;;;;;;4834293;29;20126;-83
2023/08/24 03:58:45;;;;;;;7.90;5.90;;;15.50;99.90;;;;;;4816778;29;20109;-83
2023/08/24 04:01:11;;;;;;;7.40;5.40;;;15.50;99.90;;;;;;4827886;29;20054;-83
2023/08/24 04:03:37;;;;;;;9.07;6.78;;;15.50;99.90;;;;;;4827574;29;21564;-83
2023/08/24 04:06:03;;;;;;;9.35;6.10;;;15.50;99.90;;;;;;4830327;29;20570;-84
2023/08/24 04:08:29;;;;;;;7.80;5.45;;;15.40;99.90;;;;;;4836654;29;20101;-83
2023/08/24 04:10:55;;;;;;;10.35;6.65;;;15.40;99.90;;;;;;4836053;29;20106;-84
2023/08/24 04:13:21;;;;;;;8.38;5.53;;;15.40;99.90;;;;;;4835934;29;20046;-83
2023/08/24 04:15:48;;;;;;;9.65;6.10;;;15.40;99.90;;;;;;4837314;29;20102;-83
2023/08/24 04:18:14;;;;;;;10.23;7.65;;;15.40;99.90;;;;;;4833181;29;20050;-84
2023/08/24 04:20:43;;;;;;;9.00;6.70;;;15.30;99.90;;;;;;4836747;29;20095;-84
2023/08/24 04:23:10;;;;;;;10.50;7.10;;;15.30;99.90;;;;;;4819934;29;20516;-83
2023/08/24 04:25:43;;;;;;;11.23;6.53;;;15.30;99.90;;;;;;4834183;29;20041;-83
2023/08/24 04:28:09;;;;;;;8.73;7.53;;;15.30;99.90;;;;;;4813490;29;20061;-83
2023/08/24 04:30:34;;;;;;;8.45;6.80;;;15.30;99.90;;;;;;4820597;29;20034;-84
2023/08/24 04:33:00;;;;;;;9.77;7.40;;;15.30;99.90;;;;;;4838694;29;20126;-83
2023/08/24 04:35:27;;;;;;;10.00;7.05;;;15.30;99.90;;;;;;4835908;29;20057;-83
2023/08/24 04:37:59;;;;;;;9.75;7.50;;;15.20;99.90;;;;;;4817501;29;20501;-83
2023/08/24 04:40:24;;;;;;;9.20;7.28;;;15.10;99.90;;;;;;4830482;29;20085;-84
2023/08/24 04:42:59;;;;;;;10.00;7.28;;;15.10;99.90;;;;;;4820548;29;20138;-83
2023/08/24 04:45:25;;;;;;;11.63;7.85;;;15.00;99.90;;;;;;4838745;29;20558;-83
2023/08/24 04:47:51;;;;;;;13.43;9.23;;;14.90;99.90;;;;;;4839307;29;20124;-83
2023/08/24 04:50:17;;;;;;;11.93;9.52;;;14.90;99.90;;;;;;4838067;29;20198;-84
2023/08/24 04:52:42;;;;;;;12.02;10.18;;;14.90;99.90;;;;;;4819972;29;20048;-83
2023/08/24 04:55:08;;;;;;;14.20;10.60;;;14.90;99.90;;;;;;4837797;29;20165;-84
2023/08/24 04:57:34;;;;;;;12.35;10.95;;;14.90;99.90;;;;;;4846448;29;20077;-83
2023/08/24 05:00:00;;;;;;;16.55;12.45;;;15.00;99.90;;;;;;4836157;29;20058;-83
2023/08/24 05:02:26;;;;;;;13.77;12.25;;;15.00;99.90;;;;;;4851963;29;20066;-83
2023/08/24 05:04:52;;;;;;;13.82;11.32;;;15.10;99.90;;;;;;4836327;29;20144;-83
2023/08/24 05:07:17;;;;;;;19.10;14.13;;;15.10;99.90;;;;;;4839287;29;20144;-83
2023/08/24 05:09:43;;;;;;;12.95;10.82;;;15.10;99.90;;;;;;4833216;29;20078;-84
2023/08/24 05:12:09;;;;;;;10.57;9.15;;;15.10;99.90;;;;;;4835560;29;20060;-83
2023/08/24 05:14:38;;;;;;;16.00;13.90;;;15.10;99.90;;;;;;4835083;29;20138;-84
2023/08/24 05:17:04;;;;;;;15.57;12.32;;;15.10;99.90;;;;;;4834856;29;20513;-83
2023/08/24 05:19:30;;;;;;;13.57;10.52;;;15.10;99.90;;;;;;4843610;29;20057;-83
2023/08/24 05:21:56;;;;;;;13.55;10.27;;;15.10;99.90;;;;;;4824927;29;20404;-83
2023/08/24 05:24:22;;;;;;;16.55;13.18;;;15.20;99.90;;;;;;4821790;29;20110;-83
2023/08/24 05:26:48;;;;;;;12.07;10.15;;;15.20;99.90;;;;;;4819593;29;20048;-83
2023/08/24 05:29:13;;;;;;;12.88;9.70;;;15.30;99.90;;;;;;4837786;29;20053;-83
2023/08/24 05:31:39;;;;;;;12.95;10.43;;;15.30;99.90;;;;;;4834391;29;20467;-84
2023/08/24 05:34:05;;;;;;;14.15;11.50;;;15.30;99.90;;;;;;4832537;29;20049;-83
2023/08/24 05:36:31;;;;;;;17.08;11.13;;;15.30;99.90;;;;;;4849535;29;20461;-83
2023/08/24 05:38:57;;;;;;;12.18;10.35;;;15.40;99.90;;;;;;4825250;29;20045;-83
2023/08/24 05:41:22;;;;;;;12.52;10.50;;;15.50;99.90;;;;;;4819773;29;20114;-83
2023/08/24 05:43:48;;;;;;;14.02;10.50;;;15.60;99.90;;;;;;4819113;29;20490;-83
2023/08/24 05:46:14;;;;;;;11.68;9.32;;;15.60;99.90;;;;;;4815333;29;20082;-83
2023/08/24 05:48:46;;;;;;;11.52;9.10;;;15.70;99.90;;;;;;4819797;29;20034;-83
2023/08/24 05:51:12;;;;;;;11.07;9.10;;;15.80;99.90;;;;;;4820889;29;20054;-82
2023/08/24 05:53:40;;;;;;;13.30;8.82;;;15.90;99.90;;;;;;4834124;29;20515;-83
2023/08/24 05:56:09;;;;;;;9.60;8.23;;;15.90;99.90;;;;;;4831608;29;20073;-82
2023/08/24 05:58:35;;;;;;;9.70;7.05;;;16.00;99.90;;;;;;4832064;29;20401;-83
2023/08/24 06:01:00;;;;;;;9.45;6.65;;;16.10;99.90;;;;;;4827781;29;20149;-82
2023/08/24 06:03:26;;;;;;;10.63;7.78;;;16.10;99.90;;;;;;4826917;29;20046;-82
2023/08/24 06:06:01;;;;;;;9.23;6.90;;;16.20;99.90;;;;;;4808383;29;20060;-82
2023/08/24 06:08:27;;;;;;;10.68;6.93;;;16.20;99.90;;;;;;4812402;29;20050;-82
2023/08/24 06:10:52;;;;;;;10.02;6.10;;;16.20;99.90;;;;;;4827341;29;20054;-83
2023/08/24 06:13:18;;;;;;;11.48;7.35;;;16.20;99.90;;;;;;4808877;29;20413;-82
2023/08/24 06:15:44;;;;;;;9.85;5.78;;;16.30;99.90;;;;;;4828306;29;20460;-83
2023/08/24 06:18:13;;;;;;;8.43;6.18;;;16.40;99.90;;;;;;4812545;29;20128;-83
2023/08/24 06:20:39;;;;;;;9.40;5.43;;;16.40;99.90;;;;;;4826999;29;20174;-83
2023/08/24 06:23:05;;;;;;;7.18;4.90;;;16.40;99.90;;;;;;4827018;29;20413;-83
2023/08/24 06:25:31;;;;;;;9.57;5.20;;;16.50;99.90;;;;;;4821235;29;20058;-83
2023/08/24 06:27:58;;;;;;;7.75;5.20;;;16.60;99.90;;;;;;4807011;29;20513;-82
2023/08/24 06:30:25;;;;;;;7.07;4.78;;;16.60;99.90;;;;;;4828919;29;20052;-83
2023/08/24 06:32:51;;;;;;;9.18;4.95;;;16.70;99.90;;;;;;4803745;29;20549;-83
2023/08/24 06:35:17;;;;;;;8.63;4.68;;;16.70;99.90;;;;;;4831305;29;20050;-82
2023/08/24 06:37:46;;;;;;;7.03;3.97;;;16.80;99.90;;;;;;4829290;29;20058;-83
2023/08/24 06:40:12;;;;;;;9.07;4.97;;;16.80;99.90;;;;;;4845247;29;20050;-83
2023/08/24 06:42:38;;;;;;;9.30;5.30;;;16.80;99.90;;;;;;4821039;29;20056;-83
2023/08/24 06:45:04;;;;;;;8.43;5.43;;;16.80;99.90;;;;;;4806686;29;20157;-83
2023/08/24 06:47:30;;;;;;;8.32;5.55;;;17.00;99.90;;;;;;4811037;29;20039;-82
2023/08/24 06:49:56;;;;;;;8.82;5.95;;;17.00;99.90;;;;;;4821003;29;20042;-83
2023/08/24 06:52:22;;;;;;;10.10;6.32;;;17.10;99.90;;;;;;4828810;29;20053;-83
2023/08/24 06:54:53;;;;;;;9.10;6.30;;;17.10;99.90;;;;;;4804653;29;20577;-83
2023/08/24 06:57:18;;;;;;;9.18;6.28;;;17.20;99.90;;;;;;4807079;29;20501;-82
2023/08/24 06:59:44;;;;;;;10.63;6.95;;;17.30;99.90;;;;;;4823622;29;20053;-82
2023/08/24 07:02:17;;;;;;;9.77;6.60;;;17.30;99.90;;;;;;4829961;29;20171;-83
2023/08/24 07:04:44;;;;;;;8.35;6.38;;;17.40;99.90;;;;;;4819860;29;20054;-82
2023/08/24 07:07:13;;;;;;;10.60;6.15;;;17.50;99.90;;;;;;4812407;29;20612;-83
2023/08/24 07:09:39;;;;;;;9.65;6.45;;;17.60;99.90;;;;;;4809129;29;20158;-82
2023/08/24 07:12:07;;;;;;;7.40;6.10;;;17.60;99.90;;;;;;4821368;29;20553;-82
2023/08/24 07:14:33;;;;;;;9.30;7.35;;;17.70;99.90;;;;;;4820319;29;20070;-82
2023/08/24 07:16:59;;;;;;;9.73;7.03;;;17.80;99.90;;;;;;4825405;29;20038;-82
2023/08/24 07:19:26;;;;;;;9.45;6.95;;;17.90;99.90;;;;;;4842353;29;20146;-82
2023/08/24 07:21:52;;;;;;;10.32;7.25;;;18.00;99.90;;;;;;4822203;29;20050;-82
2023/08/24 07:24:25;;;;;;;10.00;7.38;;;18.20;99.90;;;;;;4821851;29;20383;-82
2023/08/24 07:26:52;;;;;;;13.35;8.50;;;18.30;99.90;;;;;;4816894;29;20066;-81
2023/08/24 07:29:19;;;;;;;10.32;7.57;;;18.50;99.90;;;;;;4826292;29;20537;-81
2023/08/24 07:31:45;;;;;;;10.07;7.95;;;18.60;99.90;;;;;;4826941;29;20046;-82
2023/08/24 07:34:15;;;;;;;12.13;7.90;;;18.80;99.90;;;;;;4823763;29;20108;-81
2023/08/24 07:36:44;;;;;;;10.10;8.10;;;18.90;99.90;;;;;;4812637;29;20053;-81
2023/08/24 07:39:11;;;;;;;11.00;7.63;;;19.10;99.90;;;;;;4833425;29;20120;-81
2023/08/24 07:41:37;;;;;;;12.85;7.47;;;19.30;99.90;;;;;;4836091;29;20068;-82
2023/08/24 07:44:03;;;;;;;9.48;7.15;;;19.40;99.90;;;;;;4832468;29;20077;-82
2023/08/24 07:46:29;;;;;;;10.88;7.10;;;19.50;99.90;;;;;;4826799;29;20049;-81
2023/08/24 07:48:58;;;;;;;9.57;6.88;;;19.60;99.90;;;;;;4821155;29;20049;-81
2023/08/24 07:51:23;;;;;;;10.93;8.10;;;19.80;99.90;;;;;;4832058;29;20406;-81
2023/08/24 07:53:52;;;;;;;9.05;6.57;;;19.90;99.90;;;;;;4834407;29;20045;-81
2023/08/24 07:56:18;;;;;;;9.93;6.35;;;20.00;99.90;;;;;;4834601;29;20142;-81
2023/08/24 07:58:45;;;;;;;9.95;7.20;;;20.20;99.90;;;;;;4852164;29;20533;-81
2023/08/24 08:01:13;;;;;;;9.40;6.97;;;20.40;99.90;;;;;;4829010;29;20058;-81
2023/08/24 08:03:39;;;;;;;12.10;7.72;;;20.60;99.90;;;;;;4826322;29;20053;-81
2023/08/24 08:06:05;;;;;;;9.93;7.32;;;20.70;99.90;;;;;;4838645;29;20097;-81
2023/08/24 08:08:31;;;;;;;8.40;6.68;;;20.80;99.90;;;;;;4831410;29;20818;-81
2023/08/24 08:11:01;;;;;;;12.95;6.60;;;20.90;99.90;;;;;;4827370;29;21230;-81
2023/08/24 08:13:30;;;;;;;10.27;6.80;;;21.10;99.90;;;;;;4825404;29;20063;-81
2023/08/24 08:16:06;;;;;;;8.87;6.83;;;21.20;99.90;;;;;;4826185;29;20095;-81
2023/08/24 08:18:33;;;;;;;9.95;7.50;;;21.30;99.90;;;;;;4817417;29;20054;-80
2023/08/24 08:20:59;;;;;;;9.13;5.70;;;21.50;99.90;;;;;;4820007;29;20042;-81
2023/08/24 08:23:25;;;;;;;11.13;7.57;;;21.60;99.90;;;;;;4816765;29;20102;-81
2023/08/24 08:25:51;;;;;;;10.10;6.35;;;21.80;99.90;;;;;;4834198;29;20653;-81
2023/08/24 08:28:18;;;;;;;9.48;6.57;;;21.90;99.90;;;;;;4824419;29;20086;-81
2023/08/24 08:30:44;;;;;;;10.85;8.07;;;22.00;99.90;;;;;;4832995;29;20448;-81
2023/08/24 08:33:10;;;;;;;10.30;7.43;;;22.20;99.90;;;;;;4819647;29;20202;-82
2023/08/24 08:35:38;;;;;;;13.55;8.85;;;22.30;99.90;;;;;;4820896;29;20046;-81
2023/08/24 08:38:06;;;;;;;13.30;7.85;;;22.40;99.90;;;;;;4815882;29;20052;-81
2023/08/24 08:40:32;;;;;;;11.75;7.93;;;22.50;99.90;;;;;;4811114;29;20054;-79
2023/08/24 08:43:00;;;;;;;8.25;6.88;;;22.50;99.90;;;;;;4832320;29;20053;-81
2023/08/24 08:45:27;;;;;;;9.45;6.28;;;22.40;99.90;;;;;;4827577;29;20046;-82
2023/08/24 08:47:57;;;;;;;11.57;7.55;;;22.40;99.90;;;;;;4825796;29;20553;-81
2023/08/24 08:50:24;;;;;;;10.93;7.03;;;22.50;99.90;;;;;;4826584;29;20046;-81
2023/08/24 08:52:51;;;;;;;9.43;8.45;;;22.60;99.90;;;;;;4828656;29;20121;-81
2023/08/24 08:55:20;;;;;;;10.43;7.68;;;22.70;99.90;;;;;;4829734;29;20137;-81
2023/08/24 08:57:48;;;;;;;10.00;7.80;;;22.80;99.90;;;;;;4830727;29;20050;-81
2023/08/24 09:00:16;;;;;;;10.07;7.82;;;22.90;99.90;;;;;;4813390;29;20189;-80
2023/08/24 09:02:45;;;;;;;12.07;7.97;;;23.00;99.90;;;;;;4830872;29;20379;-81
2023/08/24 09:05:12;;;;;;;10.48;7.97;;;23.10;99.90;;;;;;4829660;29;20328;-81
2023/08/24 09:07:43;;;;;;;8.63;6.80;;;23.10;99.90;;;;;;4833128;29;20050;-81
2023/08/24 09:10:09;;;;;;;9.93;7.45;;;23.20;99.90;;;;;;4813941;29;20046;-81
2023/08/24 09:12:35;;;;;;;9.25;6.78;;;23.20;99.90;;;;;;4825840;29;20046;-82
2023/08/24 09:15:06;;;;;;;10.82;7.35;;;23.30;99.90;;;;;;4828304;29;20137;-81
2023/08/24 09:17:33;;;;;;;9.15;7.20;;;23.30;99.90;;;;;;4831631;29;20057;-81
2023/08/24 09:20:00;;;;;;;9.38;7.60;;;23.30;99.90;;;;;;4831036;29;20045;-81
2023/08/24 09:22:26;;;;;;;9.93;8.45;;;23.30;99.90;;;;;;4826579;29;20073;-81
2023/08/24 09:24:54;;;;;;;11.95;9.10;;;23.20;99.90;;;;;;4826933;29;20049;-81
2023/08/24 09:27:23;;;;;;;11.50;8.13;;;23.20;99.90;;;;;;4819868;29;20061;-81
2023/08/24 09:29:53;;;;;;;9.35;8.07;;;23.10;99.90;;;;;;4823699;29;20109;-80
2023/08/24 09:32:28;;;;;;;12.80;9.00;;;23.20;99.90;;;;;;4832727;29;20050;-81
2023/08/24 09:34:55;;;;;;;11.57;9.05;;;23.20;99.90;;;;;;4823930;29;20532;-80
2023/08/24 09:37:21;;;;;;;11.05;8.82;;;23.20;99.90;;;;;;4824610;29;20058;-80
2023/08/24 09:39:47;;;;;;;12.15;10.45;;;23.10;99.90;;;;;;4830835;29;20049;-80
2023/08/24 09:42:13;;;;;;;15.13;10.80;;;23.10;99.90;;;;;;4827795;29;20054;-80
2023/08/24 09:44:47;;;;;;;13.27;9.73;;;23.00;99.90;;;;;;4826889;29;20105;-80
2023/08/24 09:47:12;;;;;;;10.68;9.55;;;22.90;99.90;;;;;;4817580;29;20053;-80
2023/08/24 09:49:39;;;;;;;11.30;10.20;;;22.90;99.90;;;;;;4823851;29;20061;-80
2023/08/24 09:52:08;;;;;;;12.02;10.02;;;22.80;99.90;;;;;;4820819;29;20050;-80
2023/08/24 09:54:39;;;;;;;13.32;8.60;;;22.80;99.90;;;;;;4818654;29;20041;-80
2023/08/24 09:57:12;;;;;;;12.10;9.02;;;22.70;99.90;;;;;;4826057;29;20058;-80
2023/08/24 09:59:42;;;;;;;11.75;10.25;;;22.70;99.90;;;;;;4827795;29;20042;-81
2023/08/24 10:02:20;;;;;;;10.98;9.32;;;22.70;99.90;;;;;;4816336;29;20072;-80
2023/08/24 10:04:51;;;;;;;12.43;9.25;;;22.70;99.90;;;;;;4825240;29;20069;-81
2023/08/24 10:07:20;;;;;;;10.32;9.20;;;22.60;99.90;;;;;;4835951;29;20045;-80
2023/08/24 10:10:07;;;;;;;11.90;8.48;;;22.60;99.90;;;;;;4829248;29;20042;-81
2023/08/24 10:12:46;;;;;;;10.73;9.35;;;22.60;99.90;;;;;;4827946;29;20058;-81
2023/08/24 10:15:12;;;;;;;12.07;8.93;;;22.50;99.90;;;;;;4828516;29;20057;-80
2023/08/24 10:17:39;;;;;;;11.77;9.55;;;22.60;99.90;;;;;;4828810;29;20084;-80
2023/08/24 10:20:09;;;;;;;11.98;8.82;;;22.60;99.90;;;;;;4823808;29;20534;-81
2023/08/24 10:22:36;;;;;;;13.23;7.93;;;22.50;99.90;;;;;;4827818;29;20513;-81
2023/08/24 10:25:06;;;;;;;10.93;8.40;;;22.50;99.90;;;;;;4828000;29;20065;-81
2023/08/24 10:27:36;;;;;;;8.82;7.93;;;22.50;99.90;;;;;;4827592;29;20081;-81
2023/08/24 10:30:01;;;;;;;;;;;22.50;99.90;;;;;;4831627;29;20050;-81
2023/08/24 10:32:28;;;;;;;10.32;8.05;;;22.40;99.90;;;;;;4811183;29;20024;-81
2023/08/24 10:34:54;;;;;;;11.02;7.65;;;22.40;99.90;;;;;;4821850;29;20045;-81
2023/08/24 10:37:27;;;;;;;11.18;7.35;;;22.40;99.90;;;;;;4812242;29;20110;-81
2023/08/24 10:39:53;;;;;;;10.77;8.05;;;22.40;99.90;;;;;;4823903;29;20398;-81
2023/08/24 10:42:21;;;;;;;8.85;6.78;;;22.50;99.90;;;;;;4833576;29;20053;-81
2023/08/24 10:44:49;;;;;;;9.88;7.70;;;22.50;99.90;;;;;;4811521;29;20049;-81
2023/08/24 10:47:23;;;;;;;7.95;7.18;;;22.50;99.90;;;;;;4820848;29;20403;-81
2023/08/24 10:49:55;;;;;;;10.45;7.85;;;22.50;99.90;;;;;;4825342;29;20084;-81
2023/08/24 10:52:31;;;;;;;10.65;7.15;;;22.50;99.90;;;;;;4831561;29;20409;-81
2023/08/24 10:54:57;;;;;;;11.18;8.00;;;22.50;99.90;;;;;;4813902;29;20133;-81
2023/08/24 10:57:34;;;;;;;11.07;7.80;;;22.60;99.90;;;;;;4820707;29;20402;-80
2023/08/24 11:00:10;;;;;;;9.93;7.40;;;22.60;99.90;;;;;;4820972;29;20050;-81
2023/08/24 11:02:48;;;;;;;10.10;7.27;;;22.60;99.90;;;;;;4851095;29;20479;-80
2023/08/24 11:05:21;;;;;;;10.77;6.95;;;22.60;99.90;;;;;;4837458;29;20301;-81
2023/08/24 11:07:51;;;;;;;9.85;7.32;;;22.60;99.90;;;;;;4853211;29;20459;-81
2023/08/24 11:10:21;;;;;;;11.27;7.65;;;22.70;99.90;;;;;;4837073;29;20228;-81
2023/08/24 11:13:03;;;;;;;10.43;8.00;;;22.70;99.90;;;;;;4858029;29;20053;-82
2023/08/24 11:15:44;;;;;;;10.02;7.18;;;22.70;99.90;;;;;;4837191;29;21453;-81
2023/08/24 11:18:18;;;;;;;10.80;7.10;;;22.80;99.90;;;;;;4838816;29;20056;-83
2023/08/24 11:20:54;;;;;;;9.57;7.20;;;22.80;99.90;;;;;;4856334;29;20116;-82
2023/08/24 11:23:21;;;;;;;11.32;8.68;;;22.90;99.90;;;;;;4856290;29;20563;-82
2023/08/24 11:25:51;;;;;;;9.07;8.15;;;22.90;99.90;;;;;;4850275;29;20949;-82
2023/08/24 11:28:21;;;;;;;8.80;7.72;;;23.00;99.90;;;;;;4855424;29;20060;-82
2023/08/24 11:30:48;;;;;;;9.82;7.50;;;23.00;99.90;;;;;;4851851;29;20133;-83
2023/08/24 11:33:14;;;;;;;9.63;8.48;;;23.00;99.90;;;;;;4838787;29;20060;-83
2023/08/24 11:35:43;;;;;;;9.73;7.97;;;23.10;99.90;;;;;;4805600;29;20549;-83
2023/08/24 11:38:12;;;;;;;10.45;8.48;;;23.10;99.90;;;;;;4827022;29;20144;-83
2023/08/24 11:40:38;;;;;;;11.00;9.63;;;23.10;99.90;;;;;;4824481;29;20077;-83
2023/08/24 11:43:07;;;;;;;8.43;7.47;;;23.10;99.90;;;;;;4830700;29;20485;-83
2023/08/24 11:45:36;;;;;;;9.73;8.38;;;23.20;99.90;;;;;;4815931;29;20660;-83
2023/08/24 11:48:06;;;;;;;9.97;8.97;;;23.20;99.90;;;;;;4827434;29;20062;-82
2023/08/24 11:50:34;;;;;;;12.43;11.23;;;23.20;99.90;;;;;;4826157;29;20299;-82
2023/08/24 11:53:01;;;;;;;11.52;10.30;;;23.30;99.90;;;;;;4824508;29;20042;-83
2023/08/24 11:55:26;;;;;;;12.00;10.82;;;23.30;99.90;;;;;;4816793;29;20042;-81
2023/08/24 11:57:53;;;;;;;13.50;11.98;;;23.30;99.90;;;;;;4849329;29;20397;-82
2023/08/24 12:00:21;;;;;;;12.82;10.95;;;23.40;99.90;;;;;;4832095;29;20042;-82
2023/08/24 12:02:48;;;;;;;14.15;11.95;;;23.40;99.90;;;;;;4810059;29;20139;-82
2023/08/24 12:05:21;;;;;;;15.02;11.50;;;23.40;99.90;;;;;;4820774;29;20055;-82
2023/08/24 12:07:48;;;;;;;13.38;11.40;;;23.50;99.90;;;;;;4828601;29;20083;-82
2023/08/24 12:10:13;;;;;;;12.25;10.90;;;23.50;99.90;;;;;;4826219;29;20061;-82
2023/08/24 12:12:39;;;;;;;14.20;12.18;;;23.50;99.90;;;;;;4850568;29;20046;-82
2023/08/24 12:15:06;;;;;;;13.00;11.18;;;23.60;99.90;;;;;;4825073;29;20050;-82
2023/08/24 12:17:43;;;;;;;14.00;12.70;;;23.60;99.90;;;;;;4830774;29;20053;-81
2023/08/24 12:20:22;;;;;;;26.33;15.18;;;23.60;99.90;;;;;;4807640;29;20062;-82
2023/08/24 12:22:55;;;;;;;14.68;11.75;;;23.60;99.90;;;;;;4845689;29;20433;-82
2023/08/24 12:25:25;;;;;;;18.80;11.30;;;23.60;99.90;;;;;;4830721;29;20093;-82
2023/08/24 12:27:55;;;;;;;14.00;12.60;;;23.60;99.90;;;;;;4835695;29;20045;-82
2023/08/24 12:30:21;;;;;;;18.45;13.27;;;23.70;99.90;;;;;;4849850;29;20050;-82
2023/08/24 12:32:52;;;;;;;17.85;11.80;;;23.60;99.90;;;;;;4824801;29;20060;-81
2023/08/24 12:35:18;;;;;;;16.48;12.85;;;23.60;99.90;;;;;;4825597;29;20567;-81
2023/08/24 12:37:44;;;;;;;14.85;11.73;;;23.70;99.90;;;;;;4827954;29;20405;-82
2023/08/24 12:40:13;;;;;;;19.58;11.80;;;23.60;99.90;;;;;;4827670;29;20050;-82
2023/08/24 12:42:38;;;;;;;17.10;11.82;;;23.70;99.90;;;;;;4829342;29;20506;-82